Terminal Aerodrome Forecast
Issued by NWS

Home | Current Version | Previous Version | Text Only | Print | Product List | Glossary On
Versions: 1 2 3 4 5 6 7 8 9 10 11 12 13 14 15
703
FTAK31 PAJN 252326
TAFAWG
TAF
PAWG 252326Z 2600/2624 11004KT P6SM FEW005 BKN035 OVC050
     FM260300 12003KT P6SM -RA SCT004 OVC025
     FM261000 VRB03KT 4SM -RA BR SCT006 OVC012
     FM261700 05004KT 6SM -SHRA BR SCT007 BKN015 OVC025
      AMD LTD TO CLD VIS AND WIND 2606/2615=

USA.gov is the U.S. government's official web portal to all federal, state and local government web resources and services.